createdAt,value
2022-07-26T00:01:56.821Z,20.25
2022-07-26T00:04:23.902Z,20.25
2022-07-26T00:06:50.843Z,20.30
2022-07-26T00:09:17.787Z,20.26
2022-07-26T00:11:44.836Z,20.22
2022-07-26T00:14:11.909Z,20.26
2022-07-26T00:16:39.325Z,20.19
2022-07-26T00:19:09.940Z,20.18
2022-07-26T00:21:40.589Z,20.13
2022-07-26T00:24:08.961Z,20.08
2022-07-26T00:26:36.439Z,20.10
2022-07-26T00:29:06.204Z,20.05
2022-07-26T00:31:33.566Z,20.07
2022-07-26T00:34:00.697Z,20.03
2022-07-26T00:36:28.966Z,20.01
2022-07-26T00:38:55.984Z,20.01
2022-07-26T00:41:22.884Z,19.94
2022-07-26T00:43:57.548Z,19.92
2022-07-26T00:46:25.082Z,19.93
2022-07-26T00:48:52.169Z,19.90
2022-07-26T00:51:20.950Z,19.90
2022-07-26T00:53:48.574Z,19.92
2022-07-26T00:56:16.408Z,19.93
2022-07-26T00:58:44.408Z,19.93
2022-07-26T01:01:11.756Z,19.89
2022-07-26T01:03:39.586Z,19.87
2022-07-26T01:06:07.010Z,19.85
2022-07-26T01:08:34.004Z,19.86
2022-07-26T01:11:01.059Z,19.83
2022-07-26T01:13:31.868Z,19.84
2022-07-26T01:16:01.756Z,19.87
2022-07-26T01:18:28.758Z,19.81
2022-07-26T01:20:57.875Z,19.80
2022-07-26T01:23:24.803Z,19.79
2022-07-26T01:25:51.727Z,19.74
2022-07-26T01:28:20.127Z,19.71
2022-07-26T01:30:49.150Z,19.74
2022-07-26T01:33:16.285Z,19.69
2022-07-26T01:35:43.267Z,19.70
2022-07-26T01:38:10.253Z,19.74
2022-07-26T01:40:37.157Z,19.70
2022-07-26T01:43:04.137Z,19.66
2022-07-26T01:45:31.842Z,19.65
2022-07-26T01:47:58.790Z,19.64
2022-07-26T01:50:25.764Z,19.61
2022-07-26T01:52:52.843Z,19.54
2022-07-26T01:55:19.913Z,19.55
2022-07-26T01:57:46.841Z,19.54
2022-07-26T02:00:14.342Z,19.53
2022-07-26T02:02:41.403Z,19.48
2022-07-26T02:05:09.474Z,19.40
2022-07-26T02:07:44.470Z,19.37
2022-07-26T02:10:13.512Z,19.30
2022-07-26T02:12:42.279Z,19.30
2022-07-26T02:15:12.532Z,19.22
2022-07-26T02:17:39.465Z,19.21
2022-07-26T02:20:07.412Z,19.18
2022-07-26T02:22:35.060Z,19.24
2022-07-26T02:25:05.302Z,19.25
2022-07-26T02:27:33.029Z,19.20
2022-07-26T02:30:00.166Z,19.22
2022-07-26T02:32:27.110Z,19.21
2022-07-26T02:34:54.050Z,19.20
2022-07-26T02:37:20.974Z,19.20
2022-07-26T02:39:47.895Z,19.21
2022-07-26T02:42:14.976Z,19.22
2022-07-26T02:44:41.907Z,19.31
2022-07-26T02:47:08.819Z,19.31
2022-07-26T02:49:39.623Z,19.29
2022-07-26T02:52:06.702Z,19.28
2022-07-26T03:12:56.753Z,18.95
2022-07-26T03:15:23.728Z,19.08
2022-07-26T03:17:50.810Z,19.21
2022-07-26T03:20:17.790Z,19.27
2022-07-26T03:22:44.729Z,19.33
2022-07-26T03:25:11.757Z,19.32
2022-07-26T03:27:38.707Z,19.37
2022-07-26T03:30:06.882Z,19.56
2022-07-26T03:32:33.871Z,19.57
2022-07-26T03:35:00.783Z,19.62
2022-07-26T03:37:27.762Z,19.64
2022-07-26T03:40:13.741Z,19.73
2022-07-26T03:42:40.623Z,19.76
2022-07-26T03:45:09.485Z,19.88
2022-07-26T03:47:37.407Z,19.95
2022-07-26T03:50:08.363Z,20.08
2022-07-26T03:52:35.622Z,20.32
2022-07-26T03:55:22.560Z,20.46
2022-07-26T03:57:49.581Z,20.74
2022-07-26T04:00:16.584Z,20.95
2022-07-26T04:02:43.660Z,21.14
2022-07-26T04:05:11.431Z,21.55
2022-07-26T04:07:52.607Z,21.69
2022-07-26T04:10:22.390Z,22.04
2022-07-26T04:12:52.099Z,22.20
2022-07-26T04:15:21.105Z,22.67
2022-07-26T04:17:48.591Z,23.10
2022-07-26T04:20:16.086Z,23.38
2022-07-26T04:22:43.102Z,23.27
2022-07-26T04:25:10.367Z,23.30
2022-07-26T04:27:37.781Z,23.53
2022-07-26T04:30:10.960Z,23.48
2022-07-26T04:32:41.621Z,24.08
2022-07-26T04:35:09.091Z,24.41
2022-07-26T04:37:41.422Z,24.71
2022-07-26T04:40:09.212Z,24.57
2022-07-26T04:42:36.855Z,24.56
2022-07-26T04:45:08.334Z,24.79
2022-07-26T04:47:36.592Z,25.20
2022-07-26T04:50:04.590Z,25.64
2022-07-26T04:52:31.542Z,25.90
2022-07-26T04:54:59.654Z,26.32
2022-07-26T04:57:26.635Z,26.49
2022-07-26T05:00:10.123Z,26.98
2022-07-26T05:02:41.196Z,26.95
2022-07-26T05:05:09.193Z,26.85
2022-07-26T05:07:47.844Z,26.95
2022-07-26T05:10:17.602Z,26.82
2022-07-26T05:12:46.799Z,27.06
2022-07-26T05:15:14.746Z,27.15
2022-07-26T05:17:43.478Z,27.49
2022-07-26T05:20:14.937Z,26.09
2022-07-26T05:22:42.560Z,25.09
2022-07-26T05:25:09.950Z,25.42
2022-07-26T05:27:37.284Z,25.57
2022-07-26T05:30:04.556Z,25.93
2022-07-26T05:32:31.455Z,25.85
2022-07-26T05:34:58.440Z,26.36
2022-07-26T05:37:25.550Z,26.35
2022-07-26T05:39:52.437Z,26.15
2022-07-26T05:42:19.379Z,26.41
2022-07-26T05:44:46.243Z,26.74
2022-07-26T05:47:13.374Z,26.92
2022-07-26T05:49:40.881Z,26.70
2022-07-26T05:52:11.165Z,26.99
2022-07-26T05:54:38.191Z,27.09
2022-07-26T05:57:05.159Z,27.05
2022-07-26T05:59:32.195Z,26.83
2022-07-26T06:01:59.504Z,26.81
2022-07-26T06:04:27.310Z,27.13
2022-07-26T06:06:55.235Z,27.60
2022-07-26T06:09:24.393Z,27.56
2022-07-26T06:11:51.731Z,27.96
2022-07-26T06:14:19.917Z,27.94
2022-07-26T06:16:48.238Z,28.37
2022-07-26T06:19:15.645Z,28.26
2022-07-26T06:21:42.920Z,27.89
2022-07-26T06:24:10.617Z,28.18
2022-07-26T06:26:37.914Z,28.45
2022-07-26T06:29:04.886Z,28.38
2022-07-26T06:31:31.995Z,28.55
2022-07-26T06:33:59.112Z,29.04
2022-07-26T06:36:30.244Z,29.48
2022-07-26T06:38:57.946Z,29.74
2022-07-26T06:41:25.027Z,28.71
2022-07-26T06:43:52.020Z,28.54
2022-07-26T06:46:21.207Z,29.35
2022-07-26T06:48:52.635Z,29.50
2022-07-26T06:51:20.257Z,29.94
2022-07-26T06:53:47.208Z,30.01
2022-07-26T06:56:15.167Z,29.98
2022-07-26T06:58:42.854Z,30.23
2022-07-26T07:01:09.986Z,30.06
2022-07-26T07:03:37.599Z,31.20
2022-07-26T07:06:04.779Z,31.28
2022-07-26T07:08:31.871Z,31.77
2022-07-26T07:10:59.043Z,31.86
2022-07-26T07:13:26.127Z,32.26
2022-07-26T07:15:53.742Z,31.41
2022-07-26T07:18:21.679Z,31.66
2022-07-26T07:20:48.754Z,32.04
2022-07-26T07:23:15.774Z,31.97
2022-07-26T07:25:44.551Z,32.06
2022-07-26T07:28:11.967Z,32.78
2022-07-26T07:30:38.910Z,31.79
2022-07-26T07:33:09.566Z,32.41
2022-07-26T07:35:50.512Z,32.90
2022-07-26T07:38:17.661Z,32.84
2022-07-26T07:40:44.686Z,32.75
2022-07-26T07:43:11.740Z,32.33
2022-07-26T07:45:38.759Z,31.92
2022-07-26T07:48:06.287Z,32.41
2022-07-26T07:50:33.429Z,32.42
2022-07-26T07:53:01.970Z,32.35
2022-07-26T07:55:41.288Z,32.30
2022-07-26T07:58:11.346Z,32.22
2022-07-26T08:00:38.889Z,31.91
2022-07-26T08:03:05.991Z,31.94
2022-07-26T08:05:32.999Z,32.19
2022-07-26T08:08:00.087Z,32.56
2022-07-26T08:10:27.536Z,32.23
2022-07-26T08:12:54.439Z,31.73
2022-07-26T08:15:23.542Z,31.15
2022-07-26T08:17:54.636Z,31.77
2022-07-26T08:20:22.940Z,31.87
2022-07-26T08:22:52.495Z,31.60
2022-07-26T08:25:19.989Z,31.12
2022-07-26T08:28:02.636Z,30.77
2022-07-26T08:30:31.192Z,31.21
2022-07-26T08:32:58.352Z,30.65
2022-07-26T08:35:25.388Z,30.54
2022-07-26T08:37:52.463Z,31.18
2022-07-26T08:40:19.450Z,31.42
2022-07-26T08:42:52.633Z,30.93
2022-07-26T08:45:28.359Z,31.08
2022-07-26T08:48:16.612Z,30.76
2022-07-26T08:50:43.077Z,29.77
2022-07-26T08:53:12.161Z,29.74
2022-07-26T08:58:26.467Z,30.11
2022-07-26T09:01:14.134Z,29.42
2022-07-26T09:03:42.759Z,29.83
2022-07-26T09:06:16.625Z,29.85
2022-07-26T09:08:44.703Z,30.51
2022-07-26T09:11:23.692Z,30.57
2022-07-26T09:13:59.326Z,30.31
2022-07-26T09:16:27.289Z,29.95
2022-07-26T09:18:55.152Z,29.36
2022-07-26T09:21:28.266Z,29.87
2022-07-26T09:23:55.691Z,30.57
2022-07-26T09:26:26.125Z,31.42
2022-07-26T09:29:08.906Z,31.00
2022-07-26T09:31:37.605Z,31.57
2022-07-26T09:34:06.146Z,31.33
2022-07-26T09:36:33.820Z,30.97
2022-07-26T09:39:03.310Z,30.71
2022-07-26T09:41:36.218Z,30.49
2022-07-26T09:44:07.084Z,30.17
2022-07-26T09:46:35.837Z,30.09
2022-07-26T09:49:19.861Z,30.29
2022-07-26T09:51:49.400Z,30.32
2022-07-26T09:54:33.713Z,30.63
2022-07-26T09:57:00.900Z,30.97
2022-07-26T09:59:29.331Z,31.38
2022-07-26T10:01:57.939Z,31.23
2022-07-26T10:04:25.515Z,30.99
2022-07-26T10:06:52.923Z,30.27
2022-07-26T10:09:22.997Z,30.79
2022-07-26T10:12:03.472Z,30.50
2022-07-26T10:14:33.249Z,29.85
2022-07-26T10:17:01.950Z,29.79
2022-07-26T10:19:47.534Z,29.46
2022-07-26T10:22:32.170Z,30.16
2022-07-26T10:25:19.226Z,30.11
2022-07-26T10:27:51.436Z,30.21
2022-07-26T10:30:18.410Z,30.32
2022-07-26T10:32:51.457Z,30.14
2022-07-26T10:35:30.949Z,29.94
2022-07-26T10:38:06.796Z,29.83
2022-07-26T10:40:34.603Z,29.03
2022-07-26T10:46:31.033Z,29.54
2022-07-26T10:49:07.621Z,29.35
2022-07-26T10:51:39.760Z,28.26
2022-07-26T10:54:12.757Z,27.98
2022-07-26T10:56:40.764Z,28.44
2022-07-26T10:59:07.902Z,28.91
2022-07-26T11:01:36.172Z,29.46
2022-07-26T11:04:03.726Z,30.43
2022-07-26T11:06:30.651Z,30.32
2022-07-26T11:08:58.000Z,29.99
2022-07-26T11:11:32.781Z,29.66
2022-07-26T11:14:11.714Z,29.76
2022-07-26T11:16:53.044Z,30.25
2022-07-26T11:19:23.452Z,30.69
2022-07-26T11:22:01.479Z,29.82
2022-07-26T11:24:29.262Z,29.57
2022-07-26T11:26:57.191Z,29.24
2022-07-26T11:29:40.687Z,29.50
2022-07-26T11:32:18.726Z,27.70
2022-07-26T11:34:46.950Z,27.23
2022-07-26T11:37:14.476Z,27.05
2022-07-26T11:39:41.386Z,27.19
2022-07-26T11:42:10.080Z,27.16
2022-07-26T11:44:37.239Z,26.99
2022-07-26T11:47:20.305Z,26.84
2022-07-26T11:50:00.287Z,26.93
2022-07-26T11:52:35.632Z,26.88
2022-07-26T11:55:02.595Z,26.89
2022-07-26T11:57:31.515Z,26.86
2022-07-26T12:00:00.382Z,26.88
2022-07-26T12:02:28.594Z,26.72
2022-07-26T12:05:16.157Z,26.78
2022-07-26T12:07:57.565Z,26.97
2022-07-26T12:10:24.935Z,27.16
2022-07-26T12:13:16.214Z,26.94
2022-07-26T12:15:53.848Z,26.79
2022-07-26T12:18:32.860Z,26.79
2022-07-26T12:21:05.048Z,26.75
2022-07-26T12:23:46.350Z,26.83
2022-07-26T12:26:27.019Z,26.70
2022-07-26T12:28:54.937Z,26.71
2022-07-26T12:31:28.221Z,26.70
2022-07-26T12:33:55.636Z,26.75
2022-07-26T12:36:27.771Z,26.82
2022-07-26T12:38:57.979Z,26.92
2022-07-26T12:41:39.490Z,26.98
2022-07-26T12:44:11.561Z,26.89
2022-07-26T12:46:39.349Z,27.01
2022-07-26T12:49:06.434Z,27.03
2022-07-26T12:51:34.171Z,27.06
2022-07-26T12:54:01.100Z,26.98
2022-07-26T12:56:28.015Z,27.15
2022-07-26T12:59:01.049Z,27.11
2022-07-26T13:01:29.644Z,27.13
2022-07-26T13:03:56.702Z,27.06
2022-07-26T13:06:23.703Z,27.08
2022-07-26T13:08:50.715Z,26.96
2022-07-26T13:11:17.716Z,26.86
2022-07-26T13:13:44.740Z,26.74
2022-07-26T13:16:12.426Z,26.64
2022-07-26T13:18:39.686Z,26.77
2022-07-26T13:21:06.788Z,26.72
2022-07-26T13:23:35.654Z,26.67
2022-07-26T13:26:04.261Z,26.59
2022-07-26T13:28:34.855Z,26.70
2022-07-26T13:31:02.344Z,26.66
2022-07-26T13:33:29.334Z,26.65
2022-07-26T13:35:56.748Z,26.60
2022-07-26T13:38:23.766Z,26.60
2022-07-26T13:40:50.736Z,26.64
2022-07-26T13:43:17.650Z,26.71
2022-07-26T13:45:44.552Z,26.69
2022-07-26T13:48:11.502Z,26.56
2022-07-26T13:50:38.446Z,26.69
2022-07-26T13:53:05.347Z,26.47
2022-07-26T13:55:32.390Z,26.55
2022-07-26T13:57:59.266Z,26.66
2022-07-26T14:00:30.051Z,26.47
2022-07-26T14:02:58.214Z,26.45
2022-07-26T14:05:25.451Z,26.55
2022-07-26T14:07:53.176Z,26.55
2022-07-26T14:10:21.973Z,26.51
2022-07-26T14:12:49.280Z,26.44
2022-07-26T14:15:21.432Z,26.41
2022-07-26T14:17:49.564Z,26.56
2022-07-26T14:20:17.399Z,26.54
2022-07-26T14:22:44.826Z,26.43
2022-07-26T14:25:12.220Z,26.29
2022-07-26T14:27:39.404Z,26.27
2022-07-26T14:30:06.897Z,26.44
2022-07-26T14:32:34.029Z,26.35
2022-07-26T14:35:01.047Z,26.39
2022-07-26T14:37:44.997Z,26.29
2022-07-26T14:40:17.155Z,26.36
2022-07-26T14:42:46.099Z,26.32
2022-07-26T14:45:13.704Z,26.23
2022-07-26T14:47:41.091Z,26.11
2022-07-26T14:50:10.055Z,26.10
2022-07-26T14:52:41.751Z,26.02
2022-07-26T14:55:09.358Z,25.98
2022-07-26T14:57:39.500Z,25.95
2022-07-26T15:15:02.026Z,25.48
2022-07-26T15:17:29.011Z,25.70
2022-07-26T15:19:55.996Z,25.79
2022-07-26T15:22:22.920Z,25.90
2022-07-26T15:24:49.991Z,25.82
2022-07-26T15:27:16.928Z,25.86
2022-07-26T15:29:44.706Z,25.90
2022-07-26T15:32:11.710Z,25.91
2022-07-26T15:34:38.764Z,25.91
2022-07-26T15:37:05.767Z,25.85
2022-07-26T15:39:32.827Z,25.85
2022-07-26T15:42:05.442Z,25.90
2022-07-26T15:44:34.766Z,25.77
2022-07-26T15:47:01.871Z,25.89
2022-07-26T15:49:30.872Z,25.99
2022-07-26T15:51:58.014Z,25.89
2022-07-26T15:54:25.085Z,26.00
2022-07-26T15:56:51.998Z,25.87
2022-07-26T15:59:18.904Z,25.96
2022-07-26T16:01:45.776Z,25.95
2022-07-26T16:04:13.299Z,25.94
2022-07-26T16:06:40.673Z,25.88
2022-07-26T16:09:22.921Z,25.89
2022-07-26T16:11:50.330Z,25.72
2022-07-26T16:14:18.030Z,25.76
2022-07-26T16:16:45.584Z,25.78
2022-07-26T16:19:13.256Z,25.75
2022-07-26T16:21:41.010Z,25.69
2022-07-26T16:24:08.354Z,25.68
2022-07-26T16:26:36.136Z,25.76
2022-07-26T16:29:04.139Z,25.60
2022-07-26T16:31:31.456Z,25.62
2022-07-26T16:33:58.420Z,25.57
2022-07-26T16:36:25.842Z,25.46
2022-07-26T16:38:52.756Z,25.43
2022-07-26T16:41:19.872Z,25.50
2022-07-26T16:43:46.997Z,25.46
2022-07-26T16:46:14.227Z,25.33
2022-07-26T16:48:41.228Z,25.24
2022-07-26T16:51:08.353Z,25.08
2022-07-26T16:53:35.463Z,25.11
2022-07-26T16:56:02.451Z,25.07
2022-07-26T16:58:29.461Z,25.08
2022-07-26T17:00:56.430Z,25.03
2022-07-26T17:03:23.917Z,25.03
2022-07-26T17:05:51.326Z,25.01
2022-07-26T17:08:18.397Z,25.04
2022-07-26T17:10:45.586Z,24.96
2022-07-26T17:13:12.707Z,24.88
2022-07-26T17:15:39.613Z,24.81
2022-07-26T17:18:06.528Z,24.79
2022-07-26T17:20:33.496Z,24.70
2022-07-26T17:23:00.514Z,24.68
2022-07-26T17:25:27.627Z,24.60
2022-07-26T17:27:54.635Z,24.57
2022-07-26T17:30:21.617Z,24.57
2022-07-26T17:32:48.643Z,24.59
2022-07-26T17:35:15.670Z,24.60
2022-07-26T17:37:42.651Z,24.50
2022-07-26T17:40:10.398Z,24.48
2022-07-26T17:42:37.926Z,24.40
2022-07-26T17:45:06.668Z,24.48
2022-07-26T17:47:33.694Z,24.53
2022-07-26T17:52:52.693Z,24.41
2022-07-26T17:55:20.209Z,24.46
2022-07-26T17:57:49.575Z,24.41
2022-07-26T18:00:21.975Z,24.36
2022-07-26T18:02:49.308Z,24.37
2022-07-26T18:05:16.851Z,24.36
2022-07-26T18:07:43.883Z,24.29
2022-07-26T18:10:11.612Z,24.30
2022-07-26T18:12:38.808Z,24.28
2022-07-26T18:15:07.633Z,24.18
2022-07-26T18:17:34.866Z,24.16
2022-07-26T18:20:01.852Z,24.26
2022-07-26T18:22:28.812Z,24.28
2022-07-26T18:24:55.770Z,24.28
2022-07-26T18:27:23.623Z,24.25
2022-07-26T18:29:50.554Z,24.32
2022-07-26T18:32:19.332Z,24.33
2022-07-26T18:34:52.088Z,24.33
2022-07-26T18:37:20.629Z,24.38
2022-07-26T18:39:53.973Z,24.40
2022-07-26T18:42:24.121Z,24.38
2022-07-26T18:44:51.142Z,24.40
2022-07-26T18:47:18.254Z,24.48
2022-07-26T18:49:45.236Z,24.43
2022-07-26T18:52:12.420Z,24.42
2022-07-26T18:54:40.506Z,24.39
2022-07-26T18:57:07.509Z,24.37
2022-07-26T18:59:34.566Z,24.33
2022-07-26T19:02:01.657Z,24.35
2022-07-26T19:04:28.753Z,24.45
2022-07-26T19:06:56.062Z,24.42
2022-07-26T19:09:23.185Z,24.35
2022-07-26T19:11:50.239Z,24.42
2022-07-26T19:14:17.580Z,24.33
2022-07-26T19:16:44.612Z,24.36
2022-07-26T19:19:11.970Z,24.25
2022-07-26T19:21:40.949Z,24.20
2022-07-26T19:24:07.933Z,24.23
2022-07-26T19:26:35.901Z,24.21
2022-07-26T19:29:02.841Z,24.23
2022-07-26T19:31:29.892Z,24.20
2022-07-26T19:33:56.852Z,24.18
2022-07-26T19:36:26.469Z,24.11
2022-07-26T19:38:56.728Z,24.13
2022-07-26T19:41:23.983Z,24.09
2022-07-26T19:43:50.966Z,24.13
2022-07-26T19:46:18.003Z,24.13
2022-07-26T19:48:45.311Z,24.18
2022-07-26T19:51:12.427Z,24.24
2022-07-26T19:53:39.519Z,24.25
2022-07-26T19:56:07.957Z,24.16
2022-07-26T19:58:35.103Z,24.17
2022-07-26T20:01:02.418Z,24.20
2022-07-26T20:03:29.431Z,24.06
2022-07-26T20:05:57.843Z,23.98
2022-07-26T20:08:25.312Z,23.95
2022-07-26T20:10:52.598Z,23.93
2022-07-26T20:13:19.621Z,23.91
2022-07-26T20:15:49.322Z,23.92
2022-07-26T20:18:19.560Z,23.87
2022-07-26T20:20:46.591Z,23.86
2022-07-26T20:23:13.636Z,23.87
2022-07-26T20:25:40.728Z,23.81
2022-07-26T20:28:07.718Z,23.77
2022-07-26T20:30:34.794Z,23.76
2022-07-26T20:33:01.854Z,23.72
2022-07-26T20:35:29.227Z,23.69
2022-07-26T20:37:56.173Z,23.67
2022-07-26T20:40:23.466Z,23.64
2022-07-26T20:42:51.691Z,23.73
2022-07-26T20:45:18.631Z,23.75
2022-07-26T20:47:45.479Z,23.81
2022-07-26T20:50:12.703Z,23.86
2022-07-26T20:52:39.979Z,23.90
2022-07-26T20:55:07.634Z,23.93
2022-07-26T20:57:35.480Z,23.81
2022-07-26T21:00:05.996Z,23.81
2022-07-26T21:02:33.011Z,23.85
2022-07-26T21:04:59.886Z,23.88
2022-07-26T21:07:55.983Z,23.92
2022-07-26T21:10:14.071Z,23.92
2022-07-26T21:12:41.536Z,23.91
2022-07-26T21:15:08.828Z,23.92
2022-07-26T21:17:35.835Z,23.79
2022-07-26T21:20:03.951Z,23.81
2022-07-26T21:22:30.937Z,23.90
2022-07-26T21:24:57.841Z,23.77
2022-07-26T21:27:24.815Z,23.79
2022-07-26T21:29:51.786Z,23.73
2022-07-26T21:32:18.655Z,23.69
2022-07-26T21:34:45.571Z,23.68
2022-07-26T21:37:12.534Z,23.60
2022-07-26T21:39:39.337Z,23.60
2022-07-26T21:42:06.182Z,23.42
2022-07-26T21:44:33.076Z,23.42
2022-07-26T21:47:00.034Z,23.36
2022-07-26T21:49:26.997Z,23.37
2022-07-26T21:51:53.996Z,23.34
2022-07-26T21:54:20.992Z,23.28
2022-07-26T21:56:47.847Z,23.31
2022-07-26T21:59:15.226Z,23.32
2022-07-26T22:01:42.841Z,23.22
2022-07-26T22:04:10.337Z,23.28
2022-07-26T22:06:37.693Z,23.26
2022-07-26T22:09:05.335Z,23.30
2022-07-26T22:11:32.377Z,23.30
2022-07-26T22:13:59.242Z,23.20
2022-07-26T22:16:26.249Z,23.14
2022-07-26T22:18:53.083Z,23.12
2022-07-26T22:21:19.938Z,23.07
2022-07-26T22:23:46.973Z,23.05
2022-07-26T22:26:14.271Z,23.02
2022-07-26T22:28:41.222Z,23.09
2022-07-26T22:31:08.119Z,23.06
2022-07-26T22:33:35.066Z,23.09
2022-07-26T22:36:01.920Z,23.01
2022-07-26T22:38:30.454Z,22.98
2022-07-26T22:40:57.394Z,23.01
2022-07-26T22:43:24.352Z,23.00
2022-07-26T22:45:51.519Z,23.02
2022-07-26T22:48:18.510Z,23.06
2022-07-26T22:50:45.406Z,22.99
2022-07-26T22:53:12.288Z,22.97
2022-07-26T22:55:39.395Z,22.92
2022-07-26T22:58:06.260Z,22.91
2022-07-26T23:00:33.237Z,22.86
2022-07-26T23:08:43.903Z,22.92
2022-07-26T23:11:00.712Z,22.99
2022-07-26T23:13:27.719Z,23.02
2022-07-26T23:16:00.320Z,23.07
2022-07-26T23:18:28.342Z,23.08
2022-07-26T23:20:55.179Z,23.06
2022-07-26T23:23:22.173Z,23.06
2022-07-26T23:25:51.043Z,23.09
2022-07-26T23:28:24.788Z,23.10
2022-07-26T23:31:06.721Z,23.13
2022-07-26T23:33:52.366Z,23.10
2022-07-26T23:36:24.515Z,23.03
2022-07-26T23:38:51.899Z,23.02
2022-07-26T23:41:19.427Z,22.82
2022-07-26T23:43:46.438Z,22.79
2022-07-26T23:46:13.436Z,22.82
2022-07-26T23:48:40.530Z,22.84
2022-07-26T23:51:07.811Z,22.76
2022-07-26T23:53:34.950Z,22.82
2022-07-26T23:56:01.995Z,22.79
2022-07-26T23:58:28.968Z,22.77
